JBU1620 KBOS-EGLL
Flight info
| Callsign | JBU1620 |
|---|---|
| Flight time | N/A |
| Altitude | 31000 |
| Route | CELTK7 CELTK DCT FRILL DCT BRADD N175G PORTI/M077F340 DCT 47N050W 49N040W 51N030W 53N020W DCT MALOT DCT GISTI/N0440F350 DCT ENJEX DCT AVZAC DCT INFEC DCT JETZI DCT AMFUL DCT ORZEB/N0380F230 P2 SIRIC |
| Aircraft | A321/M-SDE3FGHIRWY/LB1 |
Departure
| Time | 2026-05-05 09:36 |
|---|---|
| Airport | Boston Logan International Airport (KBOS) |
Arrival
| Time | N/A |
|---|---|
| Airport | London Heathrow Airport (EGLL) |
| Time | Latitude | Longitude | Altitude | Speed | Heading |
|---|---|---|---|---|---|
| 2026-05-05 08:40 | 42.36640 | -71.01382 | 26 ft | 0 kts | 248° |
| 2026-05-05 09:26 | 42.36641 | -71.01377 | 25 ft | 3 kts | 248° |
| 2026-05-05 09:26 | 42.36648 | -71.01352 | 30 ft | 3 kts | 248° |
| 2026-05-05 09:26 | 42.36656 | -71.01326 | 31 ft | 3 kts | 248° |
| 2026-05-05 09:26 | 42.36662 | -71.01304 | 30 ft | 3 kts | 262° |
| 2026-05-05 09:27 | 42.36661 | -71.01281 | 31 ft | 3 kts | 308° |
| 2026-05-05 09:27 | 42.36649 | -71.01269 | 30 ft | 3 kts | 1° |
| 2026-05-05 09:27 | 42.36630 | -71.01274 | 29 ft | 3 kts | 16° |
| 2026-05-05 09:27 | 42.36618 | -71.01279 | 30 ft | 0 kts | 16° |
| 2026-05-05 09:30 | 42.36620 | -71.01278 | 25 ft | 1 kts | 16° |
| 2026-05-05 09:31 | 42.36633 | -71.01273 | 29 ft | 3 kts | 16° |
| 2026-05-05 09:31 | 42.36660 | -71.01263 | 27 ft | 5 kts | 15° |
| 2026-05-05 09:31 | 42.36701 | -71.01248 | 25 ft | 7 kts | 15° |
| 2026-05-05 09:31 | 42.36754 | -71.01245 | 27 ft | 9 kts | 347° |
| 2026-05-05 09:32 | 42.36811 | -71.01285 | 25 ft | 9 kts | 340° |
| 2026-05-05 09:32 | 42.36815 | -71.01286 | 25 ft | 1 kts | 345° |
| 2026-05-05 09:32 | 42.36843 | -71.01281 | 25 ft | 6 kts | 8° |
| 2026-05-05 09:32 | 42.36892 | -71.01290 | 26 ft | 8 kts | 332° |
| 2026-05-05 09:33 | 42.36941 | -71.01349 | 26 ft | 11 kts | 315° |
| 2026-05-05 09:33 | 42.36998 | -71.01426 | 25 ft | 13 kts | 315° |
| 2026-05-05 09:33 | 42.37065 | -71.01516 | 28 ft | 14 kts | 315° |
| 2026-05-05 09:33 | 42.37140 | -71.01616 | 25 ft | 15 kts | 315° |
| 2026-05-05 09:34 | 42.37213 | -71.01714 | 25 ft | 15 kts | 315° |
| 2026-05-05 09:34 | 42.37287 | -71.01813 | 26 ft | 15 kts | 315° |
| 2026-05-05 09:34 | 42.37362 | -71.01847 | 29 ft | 12 kts | 31° |
| 2026-05-05 09:34 | 42.37404 | -71.01788 | 30 ft | 6 kts | 58° |
| 2026-05-05 09:35 | 42.37389 | -71.01743 | 30 ft | 5 kts | 135° |
| 2026-05-05 09:35 | 42.37374 | -71.01722 | 25 ft | 12 kts | 135° |
| 2026-05-05 09:35 | 42.37135 | -71.01403 | 27 ft | 83 kts | 135° |
| 2026-05-05 09:36 | 42.36577 | -71.00657 | 26 ft | 140 kts | 135° |
| 2026-05-05 09:36 | 42.35784 | -70.99601 | 184 ft | 173 kts | 138° |
| 2026-05-05 09:36 | 42.34952 | -70.98490 | 1005 ft | 167 kts | 136° |
| 2026-05-05 09:36 | 42.34328 | -70.97069 | 1420 ft | 188 kts | 117° |
| 2026-05-05 09:37 | 42.33944 | -70.95290 | 1643 ft | 204 kts | 114° |
| 2026-05-05 09:37 | 42.33529 | -70.93359 | 1767 ft | 223 kts | 114° |
| 2026-05-05 09:37 | 42.33070 | -70.91253 | 1905 ft | 243 kts | 114° |
| 2026-05-05 09:37 | 42.32584 | -70.88998 | 2084 ft | 262 kts | 111° |
| 2026-05-05 09:38 | 42.32354 | -70.86436 | 2359 ft | 285 kts | 91° |
| 2026-05-05 09:38 | 42.32699 | -70.83752 | 2905 ft | 294 kts | 78° |
| 2026-05-05 09:38 | 42.33139 | -70.81052 | 3505 ft | 294 kts | 86° |
| 2026-05-05 09:38 | 42.33137 | -70.78306 | 4089 ft | 292 kts | 102° |
| 2026-05-05 09:39 | 42.32786 | -70.75603 | 4689 ft | 293 kts | 104° |
| 2026-05-05 09:39 | 42.32426 | -70.72877 | 5274 ft | 296 kts | 103° |
| 2026-05-05 09:39 | 42.32070 | -70.70128 | 5879 ft | 298 kts | 103° |
| 2026-05-05 09:39 | 42.31717 | -70.67359 | 6479 ft | 299 kts | 103° |
| 2026-05-05 09:40 | 42.31363 | -70.64584 | 7052 ft | 301 kts | 103° |
| 2026-05-05 09:40 | 42.31036 | -70.61776 | 7633 ft | 304 kts | 101° |
| 2026-05-05 09:40 | 42.30775 | -70.58930 | 8207 ft | 306 kts | 99° |
| 2026-05-05 09:40 | 42.30544 | -70.56052 | 8783 ft | 309 kts | 99° |
| 2026-05-05 09:41 | 42.30323 | -70.53190 | 9331 ft | 311 kts | 98° |
| 2026-05-05 09:41 | 42.30095 | -70.50276 | 9886 ft | 313 kts | 98° |
| 2026-05-05 09:41 | 42.29858 | -70.47328 | 10272 ft | 322 kts | 99° |
| 2026-05-05 09:41 | 42.29598 | -70.44240 | 10408 ft | 339 kts | 99° |
| 2026-05-05 09:42 | 42.29318 | -70.40991 | 10534 ft | 356 kts | 99° |
| 2026-05-05 09:42 | 42.29020 | -70.37585 | 10662 ft | 372 kts | 99° |
| 2026-05-05 09:42 | 42.28713 | -70.34064 | 10997 ft | 380 kts | 99° |
| 2026-05-05 09:42 | 42.28608 | -70.32865 | 11160 ft | 381 kts | 98° |